Brookville, Pennsylvania
Current Conditions -  °F | °C
As of 1:53 PM on Monday 20 Oct 2014 (Local Time) from KDUJ Reporting Station
Broken Clouds Broken Clouds  
Wind Chill: 53°   Ceiling: 11000
Heat Index: 53°   Visibility: 10mi
Dew Point: 40°   Wind: 13mph
Humidity: 61%   Direction: 220°SW
Pressure: 29.9"   Gusts: 23mph
Location:  41.16°N, 79.08°W
Report Text: KDUJ 201753Z AUTO 22011G20KT 10SM FEW031 BKN110 12/04 A2990 RMK AO2 SLP128 T01170044 10122 20050 58024
Loading
Personal Weather Stations






























Interactive Weather Map
Tropical Storm Tracking
New forecast layout! Learn more

10-Day Weather Forecast

Advertisements
Track Severe Weather on mobile